Time;durP1;ratioP1;P1;durP2;ratioP2;P2;SDS_P1;SDS_P2;PMS_P1;PMS_P2;Temp;Humidity;BMP_temperature;BMP_pressure;BME280_temperature;BME280_humidity;BME280_pressure;Samples;Min_cycle;Max_cycle;Signal;HPM_P1;HPM_P2
2024/04/05 09:42:30;;;;;;;2.90;1.42;;;;;;;;;;5043083;28;20155;-76
2024/04/05 09:44:58;;;;;;;2.50;1.00;;;;;;;;;;5053763;28;20036;-76
2024/04/05 09:47:25;;;;;;;2.85;1.05;;;;;;;;;;5038080;23;20069;-56
2024/04/05 09:49:51;;;;;;;2.00;0.98;;;;;;;;;;5031558;28;20048;-53
2024/04/05 09:52:20;;;;;;;4.07;1.15;;;;;;;;;;5033896;28;20033;-53
2024/04/05 09:54:46;;;;;;;2.03;0.95;;;;;;;;;;5033783;28;20061;-53
2024/04/05 09:57:13;;;;;;;4.22;1.08;;;;;;;;;;5033791;28;20037;-53
2024/04/05 09:59:40;;;;;;;2.03;0.90;;;;;;;;;;5033714;28;20033;-53
2024/04/05 10:02:07;;;;;;;1.77;0.98;;;;;;;;;;5033817;28;20393;-53
2024/04/05 10:04:36;;;;;;;3.13;1.38;;;;;;;;;;5033500;28;20042;-53
2024/04/05 10:07:05;;;;;;;2.25;1.05;;;;;;;;;;5033879;28;20100;-53
2024/04/05 10:09:33;;;;;;;2.70;1.05;;;;;;;;;;5033595;28;20113;-53
2024/04/05 10:11:58;;;;;;;4.25;1.15;;;;;;;;;;5033559;28;20021;-53
2024/04/05 10:14:24;;;;;;;4.65;1.30;;;;;;;;;;5033851;28;20128;-53
2024/04/05 10:16:50;;;;;;;3.50;1.13;;;;;;;;;;5015902;28;20488;-53
2024/04/05 10:19:18;;;;;;;2.38;1.08;;;;;;;;;;5015906;28;20048;-53
2024/04/05 10:21:43;;;;;;;2.42;0.88;;;;;;;;;;5033571;28;20033;-53
2024/04/05 10:24:10;;;;;;;2.42;1.10;;;;;;;;;;5033518;28;20386;-55
2024/04/05 10:26:36;;;;;;;1.48;1.10;;;;;;;;;;5033367;28;20037;-55
2024/04/05 10:29:04;;;;;;;1.33;0.90;;;;;;;;;;5033471;28;20029;-55
2024/04/05 10:31:34;;;;;;;1.08;0.90;;;;;;;;;;5033391;28;20032;-55
2024/04/05 10:34:04;;;;;;;3.05;1.05;;;;;;;;;;5033322;28;20377;-55
2024/04/05 10:36:32;;;;;;;1.60;0.95;;;;;;;;;;5033335;28;20045;-56
2024/04/05 10:38:59;;;;;;;2.85;0.85;;;;;;;;;;5015964;28;20041;-56
2024/04/05 10:41:25;;;;;;;1.35;0.80;;;;;;;;;;5015628;28;20473;-56
2024/04/05 10:44:00;;;;;;;4.07;1.13;;;;;;;;;;5033194;28;20033;-56
2024/04/05 10:46:25;;;;;;;3.17;1.00;;;;;;;;;;5033296;28;20029;-56
2024/04/05 10:49:00;;;;;;;2.47;0.75;;;;;;;;;;5032815;28;20486;-56
2024/04/05 10:51:26;;;;;;;2.20;0.80;;;;;;;;;;5033213;28;20032;-56
2024/04/05 10:53:51;;;;;;;0.70;0.60;;;;;;;;;;5015755;28;20041;-56
2024/04/05 10:56:17;;;;;;;0.82;0.80;;;;;;;;;;5015465;28;20072;-56
2024/04/05 10:58:43;;;;;;;1.33;0.75;;;;;;;;;;5035012;28;20033;-56
2024/04/05 11:01:09;;;;;;;1.83;1.00;;;;;;;;;;5019285;28;20052;-56
2024/04/05 11:03:34;;;;;;;2.50;1.13;;;;;;;;;;5037097;28;20038;-56
2024/04/05 11:06:04;;;;;;;1.27;1.02;;;;;;;;;;5036802;28;20041;-56
2024/04/05 11:08:30;;;;;;;3.28;1.05;;;;;;;;;;5019323;28;20032;-56
2024/04/05 11:10:55;;;;;;;2.22;1.00;;;;;;;;;;5036783;28;20034;-56
2024/04/05 11:13:21;;;;;;;1.17;0.90;;;;;;;;;;5036855;28;20032;-56
2024/04/05 11:15:47;;;;;;;0.85;0.60;;;;;;;;;;5036724;28;20044;-56
2024/04/05 11:18:13;;;;;;;1.67;1.10;;;;;;;;;;5036619;28;20022;-56
2024/04/05 11:20:42;;;;;;;1.75;0.82;;;;;;;;;;5036573;28;20493;-56
2024/04/05 11:23:14;;;;;;;1.83;1.10;;;;;;;;;;5036607;28;20125;-55
2024/04/05 11:25:40;;;;;;;1.50;0.75;;;;;;;;;;5036710;28;20029;-56
2024/04/05 11:28:15;;;;;;;0.85;0.75;;;;;;;;;;5019005;28;20025;-56
2024/04/05 11:30:40;;;;;;;2.65;1.00;;;;;;;;;;5036461;28;20030;-56
2024/04/05 11:33:07;;;;;;;2.10;0.90;;;;;;;;;;5018886;28;20080;-56
2024/04/05 11:35:33;;;;;;;1.10;0.82;;;;;;;;;;5036389;28;20112;-56
2024/04/05 11:37:58;;;;;;;1.95;1.10;;;;;;;;;;5036516;28;20369;-55
2024/04/05 11:40:24;;;;;;;1.73;0.82;;;;;;;;;;5036220;28;20033;-55
2024/04/05 11:42:49;;;;;;;3.28;1.05;;;;;;;;;;5036057;28;20025;-56
2024/04/05 11:45:14;;;;;;;1.85;0.98;;;;;;;;;;5018679;28;20133;-56
2024/04/05 11:47:40;;;;;;;2.28;0.90;;;;;;;;;;5036043;28;20037;-56
2024/04/05 11:50:05;;;;;;;2.13;1.05;;;;;;;;;;5018434;28;20049;-55
2024/04/05 11:52:31;;;;;;;2.38;0.75;;;;;;;;;;5018389;28;20481;-55
2024/04/05 11:54:57;;;;;;;1.65;0.80;;;;;;;;;;5051303;28;20377;-56
2024/04/05 11:57:22;;;;;;;1.73;0.63;;;;;;;;;;5035943;28;20045;-56
2024/04/05 11:59:47;;;;;;;1.73;0.75;;;;;;;;;;5035942;28;20040;-55
2024/04/05 12:02:13;;;;;;;1.80;0.73;;;;;;;;;;5018326;28;20034;-56
2024/04/05 12:04:39;;;;;;;0.30;0.30;;;;;;;;;;5035721;28;20056;-55
2024/04/05 12:07:05;;;;;;;1.48;0.88;;;;;;;;;;5034511;28;20033;-56
2024/04/05 12:09:30;;;;;;;1.65;0.73;;;;;;;;;;5017719;28;20029;-56
2024/04/05 12:11:56;;;;;;;2.15;0.70;;;;;;;;;;5035676;28;20026;-55
2024/04/05 12:14:22;;;;;;;1.08;0.63;;;;;;;;;;5035836;28;20025;-56
2024/04/05 12:16:48;;;;;;;0.80;0.75;;;;;;;;;;5035750;28;20030;-56
2024/04/05 12:19:13;;;;;;;1.42;0.70;;;;;;;;;;5017987;28;20040;-56
2024/04/05 12:21:40;;;;;;;1.92;0.80;;;;;;;;;;5017683;28;20033;-55
2024/04/05 12:24:06;;;;;;;1.98;0.65;;;;;;;;;;5001181;28;20041;-56
2024/04/05 12:26:31;;;;;;;2.28;0.73;;;;;;;;;;5035530;28;20032;-56
2024/04/05 12:28:57;;;;;;;2.75;0.73;;;;;;;;;;5035384;28;20473;-55
2024/04/05 12:31:22;;;;;;;2.15;0.70;;;;;;;;;;5017510;28;20029;-56
2024/04/05 12:33:47;;;;;;;0.63;0.57;;;;;;;;;;5035328;28;20030;-55
2024/04/05 12:36:17;;;;;;;1.13;0.75;;;;;;;;;;5035102;28;20123;-55
2024/04/05 12:38:46;;;;;;;1.45;0.80;;;;;;;;;;5035207;28;20065;-56
2024/04/05 12:41:12;;;;;;;0.65;0.60;;;;;;;;;;5035214;28;20040;-56
2024/04/05 12:43:38;;;;;;;1.50;0.90;;;;;;;;;;5017148;28;20096;-56
2024/04/05 12:46:04;;;;;;;3.13;0.85;;;;;;;;;;5050337;28;20026;-56
2024/04/05 12:48:30;;;;;;;1.20;0.80;;;;;;;;;;5000853;28;20029;-56
2024/04/05 12:51:00;;;;;;;2.00;0.82;;;;;;;;;;5035063;28;20121;-56
2024/04/05 12:53:26;;;;;;;1.27;0.60;;;;;;;;;;5034859;28;20064;-55
2024/04/05 12:55:54;;;;;;;1.67;0.90;;;;;;;;;;5034910;28;20057;-55
2024/04/05 12:58:21;;;;;;;1.35;0.65;;;;;;;;;;5034972;28;20037;-56
2024/04/05 13:00:47;;;;;;;4.18;0.60;;;;;;;;;;5017081;28;20033;-56
2024/04/05 13:03:12;;;;;;;0.88;0.68;;;;;;;;;;5017181;28;20043;-55
2024/04/05 13:05:37;;;;;;;1.40;0.73;;;;;;;;;;5033723;28;20481;-56
2024/04/05 13:08:03;;;;;;;1.17;1.08;;;;;;;;;;5034060;28;20033;-56
2024/04/05 13:10:29;;;;;;;1.25;0.80;;;;;;;;;;5034142;28;20120;-56
2024/04/05 13:12:55;;;;;;;2.10;0.75;;;;;;;;;;5032686;28;20083;-56
2024/04/05 13:15:20;;;;;;;2.33;0.80;;;;;;;;;;5016254;28;20037;-56
2024/04/05 13:17:46;;;;;;;1.98;0.80;;;;;;;;;;5034456;28;20026;-56
2024/04/05 13:20:11;;;;;;;1.23;0.75;;;;;;;;;;5034071;28;20025;-56
2024/04/05 13:22:36;;;;;;;1.45;0.80;;;;;;;;;;5033929;28;20021;-56
2024/04/05 13:25:02;;;;;;;1.25;0.77;;;;;;;;;;5016544;28;20468;-56
2024/04/05 13:27:28;;;;;;;3.78;0.90;;;;;;;;;;5034550;28;20503;-55
2024/04/05 13:29:53;;;;;;;1.63;0.80;;;;;;;;;;5034183;28;20022;-61
2024/04/05 13:32:20;;;;;;;1.17;0.98;;;;;;;;;;5033963;28;20469;-62
2024/04/05 13:34:45;;;;;;;2.97;0.88;;;;;;;;;;5033994;28;20385;-61
2024/04/05 13:37:13;;;;;;;3.20;1.00;;;;;;;;;;5033870;28;20037;-61
2024/04/05 13:39:40;;;;;;;3.60;0.93;;;;;;;;;;5034132;28;20397;-62
2024/04/05 13:42:06;;;;;;;3.20;0.80;;;;;;;;;;5033876;28;20026;-61
2024/04/05 13:44:31;;;;;;;1.90;0.90;;;;;;;;;;5033776;28;20486;-61
2024/04/05 13:46:57;;;;;;;1.63;0.68;;;;;;;;;;5033705;28;20029;-61
2024/04/05 13:49:23;;;;;;;1.70;1.00;;;;;;;;;;5033641;28;20061;-62
2024/04/05 13:51:49;;;;;;;1.80;0.65;;;;;;;;;;5034030;28;20036;-62
2024/04/05 13:54:16;;;;;;;1.85;0.60;;;;;;;;;;5033304;28;20033;-56
2024/04/05 13:56:41;;;;;;;2.60;0.70;;;;;;;;;;5033767;28;20037;-56
2024/04/05 13:59:07;;;;;;;2.95;1.10;;;;;;;;;;5033675;28;20033;-55
2024/04/05 14:01:32;;;;;;;2.58;1.17;;;;;;;;;;5034049;28;20029;-56
2024/04/05 14:03:57;;;;;;;2.80;0.85;;;;;;;;;;5033478;28;20358;-56
2024/04/05 14:06:23;;;;;;;3.00;0.90;;;;;;;;;;5026153;28;20026;-56
2024/04/05 14:08:49;;;;;;;2.58;0.65;;;;;;;;;;5015599;28;20412;-56
2024/04/05 14:11:16;;;;;;;2.30;0.90;;;;;;;;;;5033521;28;20466;-56
2024/04/05 14:13:42;;;;;;;2.58;0.60;;;;;;;;;;5033189;28;20432;-56
2024/04/05 14:16:08;;;;;;;2.92;0.90;;;;;;;;;;5033432;28;20103;-54
2024/04/05 14:18:33;;;;;;;3.92;1.00;;;;;;;;;;5033126;28;20481;-54
2024/04/05 14:20:58;;;;;;;2.67;0.98;;;;;;;;;;5033357;28;20033;-54
2024/04/05 14:23:25;;;;;;;2.30;0.82;;;;;;;;;;5033463;28;20037;-55
2024/04/05 14:25:53;;;;;;;1.80;0.93;;;;;;;;;;5033102;28;20022;-55
2024/04/05 14:28:19;;;;;;;2.40;1.00;;;;;;;;;;5033341;28;20049;-55
2024/04/05 14:30:52;;;;;;;3.30;1.17;;;;;;;;;;5033015;28;20460;-60
2024/04/05 14:33:18;;;;;;;3.40;1.05;;;;;;;;;;5036439;28;20033;-60
2024/04/05 14:35:45;;;;;;;2.38;0.95;;;;;;;;;;5037135;28;20066;-60
2024/04/05 14:38:11;;;;;;;1.73;0.98;;;;;;;;;;5037504;28;20033;-60
2024/04/05 14:40:36;;;;;;;3.83;0.98;;;;;;;;;;5037014;28;20049;-60
2024/04/05 14:43:02;;;;;;;2.70;1.00;;;;;;;;;;5036854;28;20061;-61
2024/04/05 14:45:28;;;;;;;2.60;1.15;;;;;;;;;;5036964;28;20025;-60
2024/04/05 14:47:53;;;;;;;2.15;0.88;;;;;;;;;;5037139;28;20404;-60
2024/04/05 14:50:19;;;;;;;2.22;0.98;;;;;;;;;;5037062;28;20557;-60
2024/04/05 14:52:44;;;;;;;2.85;0.88;;;;;;;;;;5018944;28;20044;-60
2024/04/05 14:55:11;;;;;;;1.70;0.80;;;;;;;;;;5036532;28;20044;-60
2024/04/05 14:57:37;;;;;;;1.33;0.82;;;;;;;;;;5036700;28;20025;-60
2024/04/05 15:00:04;;;;;;;6.10;0.93;;;;;;;;;;5036807;28;20029;-60
2024/04/05 15:02:30;;;;;;;1.80;1.10;;;;;;;;;;5036980;28;20026;-60
2024/04/05 15:04:55;;;;;;;2.70;0.90;;;;;;;;;;5018947;28;20535;-60
2024/04/05 15:07:21;;;;;;;1.77;0.82;;;;;;;;;;5036387;28;20060;-60
2024/04/05 15:09:46;;;;;;;1.88;0.80;;;;;;;;;;5036666;28;20033;-60
2024/04/05 15:12:12;;;;;;;2.85;0.73;;;;;;;;;;5036363;28;20492;-60
2024/04/05 15:14:37;;;;;;;1.83;0.85;;;;;;;;;;5036103;28;20482;-60
2024/04/05 15:17:03;;;;;;;1.58;0.85;;;;;;;;;;5036127;28;20033;-60
2024/04/05 15:19:28;;;;;;;3.65;1.30;;;;;;;;;;5036241;28;20507;-60
2024/04/05 15:21:55;;;;;;;2.85;1.00;;;;;;;;;;5036263;28;20037;-60
2024/04/05 15:24:20;;;;;;;2.13;0.90;;;;;;;;;;5036373;28;20033;-60
2024/04/05 15:26:46;;;;;;;1.75;1.05;;;;;;;;;;5018762;28;20035;-60
2024/04/05 15:29:11;;;;;;;3.03;1.38;;;;;;;;;;5018401;28;20116;-60
2024/04/05 15:31:40;;;;;;;1.98;0.95;;;;;;;;;;5036436;28;20163;-60
2024/04/05 15:34:06;;;;;;;2.42;0.80;;;;;;;;;;5034911;28;20037;-60
2024/04/05 15:36:32;;;;;;;2.10;0.90;;;;;;;;;;5035428;28;20040;-60
2024/04/05 15:38:58;;;;;;;2.05;1.17;;;;;;;;;;5034963;28;20087;-60
2024/04/05 15:41:24;;;;;;;3.30;1.00;;;;;;;;;;5035628;28;20049;-60
2024/04/05 15:43:49;;;;;;;2.22;0.88;;;;;;;;;;5015261;28;20029;-60
2024/04/05 15:46:15;;;;;;;4.88;0.88;;;;;;;;;;5016493;28;20389;-61
2024/04/05 15:48:43;;;;;;;2.97;1.50;;;;;;;;;;5015740;28;20073;-60
2024/04/05 15:51:11;;;;;;;4.32;1.80;;;;;;;;;;5015806;28;20080;-60
2024/04/05 15:53:46;;;;;;;2.85;1.38;;;;;;;;;;5033561;28;20103;-61
2024/04/05 15:56:12;;;;;;;3.80;1.88;;;;;;;;;;5033788;28;20092;-60
2024/04/05 15:58:37;;;;;;;3.45;1.65;;;;;;;;;;5033108;28;20029;-60
2024/04/05 16:01:06;;;;;;;2.08;0.98;;;;;;;;;;5033091;28;20568;-60
2024/04/05 16:03:32;;;;;;;1.80;1.00;;;;;;;;;;5033133;28;20075;-60
2024/04/05 16:05:57;;;;;;;2.53;1.38;;;;;;;;;;5033203;28;20029;-60
2024/04/05 16:08:23;;;;;;;1.67;1.13;;;;;;;;;;5033269;28;20018;-60
2024/04/05 16:10:58;;;;;;;3.28;0.95;;;;;;;;;;5015548;28;20128;-60
2024/04/05 16:13:24;;;;;;;3.30;1.35;;;;;;;;;;5033127;28;20030;-60
2024/04/05 16:15:59;;;;;;;2.03;1.20;;;;;;;;;;5014188;28;20041;-60
2024/04/05 16:18:25;;;;;;;3.85;1.75;;;;;;;;;;5014949;28;20080;-60
2024/04/05 16:20:52;;;;;;;9.40;3.45;;;;;;;;;;5015047;28;20033;-60
2024/04/05 16:23:17;;;;;;;5.43;2.58;;;;;;;;;;5032762;28;20434;-60
2024/04/05 16:25:46;;;;;;;6.13;2.17;;;;;;;;;;5015868;28;20109;-60
2024/04/05 16:28:12;;;;;;;5.43;1.38;;;;;;;;;;5032877;28;20037;-60
2024/04/05 16:30:40;;;;;;;2.55;1.27;;;;;;;;;;5032763;28;20119;-60
2024/04/05 16:33:07;;;;;;;2.92;1.23;;;;;;;;;;5033341;28;20014;-60
2024/04/05 16:35:34;;;;;;;2.70;1.42;;;;;;;;;;5016780;28;20033;-60
2024/04/05 16:37:59;;;;;;;4.30;1.60;;;;;;;;;;5016720;28;20014;-60
2024/04/05 16:40:25;;;;;;;3.22;1.67;;;;;;;;;;5000502;28;20025;-60
2024/04/05 16:42:54;;;;;;;5.88;1.85;;;;;;;;;;5034622;28;20398;-60
2024/04/05 16:45:19;;;;;;;5.50;1.55;;;;;;;;;;5034691;28;20417;-60
2024/04/05 16:47:44;;;;;;;2.88;1.63;;;;;;;;;;5016225;28;20049;-60
2024/04/05 16:50:10;;;;;;;4.18;1.42;;;;;;;;;;5034501;28;20034;-60
2024/04/05 16:52:37;;;;;;;3.78;2.08;;;;;;;;;;5000591;28;20401;-60
2024/04/05 16:55:03;;;;;;;4.05;2.17;;;;;;;;;;5033807;28;20044;-60
2024/04/05 16:57:29;;;;;;;3.13;1.85;;;;;;;;;;5033679;28;20033;-60
2024/04/05 16:59:55;;;;;;;3.42;2.10;;;;;;;;;;5034239;28;20473;-60
2024/04/05 17:02:21;;;;;;;3.10;1.70;;;;;;;;;;5016539;28;20076;-60
2024/04/05 17:04:51;;;;;;;4.82;1.75;;;;;;;;;;5034185;28;20029;-60
2024/04/05 17:07:19;;;;;;;5.40;1.88;;;;;;;;;;5034248;28;20350;-59
2024/04/05 17:09:45;;;;;;;3.60;1.55;;;;;;;;;;5016498;28;20041;-59
2024/04/05 17:12:21;;;;;;;9.55;2.22;;;;;;;;;;5016211;28;20039;-60
2024/04/05 17:14:46;;;;;;;11.85;5.15;;;;;;;;;;5016701;28;20084;-59
2024/04/05 17:17:13;;;;;;;10.75;5.22;;;;;;;;;;5033779;28;20053;-61
2024/04/05 17:19:38;;;;;;;11.45;6.15;;;;;;;;;;5033983;28;20108;-60
2024/04/05 17:22:04;;;;;;;10.77;5.78;;;;;;;;;;5033797;28;20057;-60
2024/04/05 17:24:30;;;;;;;8.77;5.32;;;;;;;;;;5033678;28;20115;-60
2024/04/05 17:26:55;;;;;;;11.98;6.80;;;;;;;;;;5033781;28;20481;-60
2024/04/05 17:29:20;;;;;;;16.20;9.52;;;;;;;;;;5033720;28;20033;-60
2024/04/05 17:31:46;;;;;;;21.92;12.13;;;;;;;;;;5033634;28;20018;-60
2024/04/05 17:34:11;;;;;;;24.02;11.23;;;;;;;;;;4999491;28;20378;-60
2024/04/05 17:36:36;;;;;;;17.42;10.15;;;;;;;;;;5033534;28;20370;-60
2024/04/05 17:39:02;;;;;;;22.23;11.30;;;;;;;;;;5033403;28;20066;-62
2024/04/05 17:41:27;;;;;;;19.15;11.75;;;;;;;;;;5033687;28;20493;-62
2024/04/05 17:43:57;;;;;;;31.45;17.88;;;;;;;;;;5015887;28;20036;-60
2024/04/05 17:46:23;;;;;;;20.08;13.80;;;;;;;;;;5033533;28;20030;-59
2024/04/05 17:48:49;;;;;;;20.13;12.82;;;;;;;;;;5016184;28;20120;-59
2024/04/05 17:51:14;;;;;;;21.98;11.82;;;;;;;;;;5033637;28;20117;-59
2024/04/05 17:53:40;;;;;;;21.77;13.45;;;;;;;;;;5033358;28;20079;-59
2024/04/05 17:56:05;;;;;;;18.55;12.30;;;;;;;;;;5033590;28;20037;-60
2024/04/05 17:58:31;;;;;;;23.42;12.70;;;;;;;;;;5033743;28;20033;-59
2024/04/05 18:00:57;;;;;;;16.92;11.55;;;;;;;;;;5016161;28;20035;-59
2024/04/05 18:03:23;;;;;;;23.25;14.05;;;;;;;;;;5033503;28;20033;-59
2024/04/05 18:05:48;;;;;;;22.88;14.00;;;;;;;;;;5015701;28;20068;-59
2024/04/05 18:08:14;;;;;;;30.67;16.58;;;;;;;;;;5032627;28;20426;-59
2024/04/05 18:10:41;;;;;;;216.68;99.82;;;;;;;;;;5033143;28;20029;-59
2024/04/05 18:13:07;;;;;;;120.20;58.10;;;;;;;;;;5033562;28;20018;-59
2024/04/05 18:15:32;;;;;;;97.05;51.15;;;;;;;;;;5033033;28;20037;-59
2024/04/05 18:17:58;;;;;;;102.13;49.70;;;;;;;;;;5033540;28;20026;-59
2024/04/05 18:20:23;;;;;;;57.00;30.75;;;;;;;;;;5033613;28;20508;-59
2024/04/05 18:22:49;;;;;;;48.58;24.45;;;;;;;;;;5033163;28;20494;-59
2024/04/05 18:25:14;;;;;;;73.30;33.42;;;;;;;;;;5032767;28;20032;-59
2024/04/05 18:27:40;;;;;;;163.30;67.45;;;;;;;;;;5033412;28;20025;-59
2024/04/05 18:30:06;;;;;;;185.63;73.68;;;;;;;;;;5033220;28;20025;-59
2024/04/05 18:32:32;;;;;;;103.90;43.72;;;;;;;;;;5015604;28;20064;-59
2024/04/05 18:34:58;;;;;;;78.05;34.63;;;;;;;;;;5015546;28;20417;-59
2024/04/05 18:37:24;;;;;;;42.20;20.98;;;;;;;;;;5032852;28;20069;-60
2024/04/05 18:39:49;;;;;;;73.25;38.95;;;;;;;;;;5032709;28;20029;-60
2024/04/05 18:42:17;;;;;;;32.15;19.20;;;;;;;;;;5033107;28;20551;-60
2024/04/05 18:44:43;;;;;;;27.48;14.38;;;;;;;;;;5033011;28;20075;-60
2024/04/05 18:47:10;;;;;;;40.58;19.75;;;;;;;;;;5033094;28;20022;-60
2024/04/05 18:49:36;;;;;;;26.60;14.95;;;;;;;;;;4998742;28;20128;-60
2024/04/05 18:52:04;;;;;;;54.88;29.23;;;;;;;;;;5014975;28;20258;-60
2024/04/05 18:54:29;;;;;;;35.58;20.75;;;;;;;;;;5032702;28;20080;-60
2024/04/05 18:56:55;;;;;;;33.95;17.98;;;;;;;;;;4999175;28;20033;-60
2024/04/05 18:59:20;;;;;;;35.05;17.75;;;;;;;;;;5032741;28;20056;-60
2024/04/05 19:01:46;;;;;;;103.32;48.55;;;;;;;;;;5015626;28;20060;-60
2024/04/05 19:04:13;;;;;;;160.57;71.97;;;;;;;;;;5015196;28;20042;-60
2024/04/05 19:06:38;;;;;;;116.00;53.42;;;;;;;;;;5032744;28;20018;-60
2024/04/05 19:09:05;;;;;;;91.75;45.45;;;;;;;;;;5015109;28;20461;-61
2024/04/05 19:11:36;;;;;;;85.97;40.83;;;;;;;;;;5015423;28;20022;-60
2024/04/05 19:14:01;;;;;;;77.53;37.60;;;;;;;;;;5032845;28;20037;-60
2024/04/05 19:16:27;;;;;;;49.95;27.08;;;;;;;;;;5014934;28;20453;-59
2024/04/05 19:18:52;;;;;;;43.80;21.95;;;;;;;;;;5033111;28;20029;-60
2024/04/05 19:21:19;;;;;;;39.60;20.10;;;;;;;;;;5036601;28;20025;-60
2024/04/05 19:23:44;;;;;;;31.38;17.35;;;;;;;;;;5036393;28;20037;-60
2024/04/05 19:26:12;;;;;;;40.90;22.58;;;;;;;;;;5036454;28;20370;-60
2024/04/05 19:28:37;;;;;;;65.45;40.50;;;;;;;;;;5036285;28;20025;-60
2024/04/05 19:31:05;;;;;;;42.70;26.65;;;;;;;;;;5018332;28;20112;-60
2024/04/05 19:33:32;;;;;;;48.63;28.55;;;;;;;;;;5036329;28;20117;-60
2024/04/05 19:36:01;;;;;;;39.13;24.00;;;;;;;;;;5018516;28;20029;-60
2024/04/05 19:38:26;;;;;;;29.33;16.88;;;;;;;;;;5018531;28;20037;-60
2024/04/05 19:40:53;;;;;;;34.67;20.73;;;;;;;;;;5019129;28;20548;-60
2024/04/05 19:43:19;;;;;;;37.90;25.38;;;;;;;;;;5018683;28;20112;-60
2024/04/05 19:45:46;;;;;;;42.38;29.70;;;;;;;;;;5018302;28;20025;-60
2024/04/05 19:48:16;;;;;;;27.20;20.55;;;;;;;;;;5035914;28;20041;-60
2024/04/05 19:50:42;;;;;;;30.60;20.30;;;;;;;;;;5036256;28;20025;-60
2024/04/05 19:53:08;;;;;;;105.60;67.93;;;;;;;;;;5002099;28;20397;-60
2024/04/05 19:55:34;;;;;;;31.33;20.40;;;;;;;;;;5018438;28;20469;-60
2024/04/05 19:57:59;;;;;;;21.25;12.65;;;;;;;;;;5035851;28;20021;-60
2024/04/05 20:00:26;;;;;;;19.55;11.57;;;;;;;;;;5017669;28;20036;-60
2024/04/05 20:02:54;;;;;;;18.85;10.02;;;;;;;;;;5035806;28;20367;-54
2024/04/05 20:05:21;;;;;;;12.75;8.82;;;;;;;;;;5017900;28;20119;-54
2024/04/05 20:07:57;;;;;;;19.95;15.10;;;;;;;;;;5028033;23;20053;-60
2024/04/05 20:13:58;;;;;;;11.23;6.28;;;;;;;;;;5023203;23;20053;-54
2024/04/05 20:16:23;;;;;;;13.30;7.03;;;;;;;;;;4997922;28;20030;-54
2024/04/05 20:18:49;;;;;;;14.57;7.68;;;;;;;;;;5015360;28;20161;-54
2024/04/05 20:21:14;;;;;;;11.07;6.85;;;;;;;;;;5015184;28;20109;-54
2024/04/05 20:23:39;;;;;;;11.52;6.15;;;;;;;;;;5015202;28;20068;-54
2024/04/05 20:26:06;;;;;;;8.77;5.75;;;;;;;;;;5015139;28;20030;-54
2024/04/05 20:33:59;;;;;;;12.48;7.22;;;;;;;;;;5015084;28;20072;-54
2024/04/05 20:36:25;;;;;;;15.07;6.50;;;;;;;;;;5014895;28;20034;-54
2024/04/05 20:38:50;;;;;;;10.20;5.53;;;;;;;;;;5014892;28;20046;-54
2024/04/05 20:41:16;;;;;;;9.35;5.10;;;;;;;;;;5014895;28;20048;-54
2024/04/05 20:43:41;;;;;;;6.40;4.55;;;;;;;;;;5014834;28;20033;-55
2024/04/05 20:46:07;;;;;;;7.30;4.80;;;;;;;;;;5014734;28;20026;-54
2024/04/05 20:48:32;;;;;;;12.65;6.35;;;;;;;;;;5014792;28;20088;-54
2024/04/05 20:51:00;;;;;;;14.85;8.32;;;;;;;;;;5014737;28;20402;-54
2024/04/05 20:53:25;;;;;;;14.93;8.73;;;;;;;;;;5014631;28;20036;-54
2024/04/05 20:55:52;;;;;;;14.55;7.97;;;;;;;;;;5014664;28;20022;-54
2024/04/05 20:58:18;;;;;;;19.17;10.23;;;;;;;;;;5029731;28;20026;-54
2024/04/05 21:00:43;;;;;;;20.67;11.00;;;;;;;;;;5014482;28;20018;-53
2024/04/05 21:03:08;;;;;;;19.38;11.13;;;;;;;;;;5014557;28;20473;-54
2024/04/05 21:05:34;;;;;;;19.00;11.00;;;;;;;;;;5014368;28;20069;-53
2024/04/05 21:08:02;;;;;;;19.98;11.18;;;;;;;;;;5029929;28;20033;-53
2024/04/05 21:10:28;;;;;;;16.63;9.48;;;;;;;;;;5013928;28;20026;-53
2024/04/05 21:12:53;;;;;;;13.45;8.65;;;;;;;;;;5014662;28;20111;-54
2024/04/05 21:15:19;;;;;;;14.82;8.80;;;;;;;;;;5014767;28;20555;-54
2024/04/05 21:17:44;;;;;;;12.40;8.07;;;;;;;;;;4997177;28;20481;-53
2024/04/05 21:20:10;;;;;;;19.65;11.02;;;;;;;;;;5014727;28;20381;-53
2024/04/05 21:22:36;;;;;;;19.88;11.00;;;;;;;;;;5014928;28;20083;-54
2024/04/05 21:25:01;;;;;;;15.25;9.50;;;;;;;;;;5015127;28;20120;-53
2024/04/05 21:27:27;;;;;;;16.60;8.68;;;;;;;;;;5015105;28;20088;-53
2024/04/05 21:29:53;;;;;;;10.10;5.55;;;;;;;;;;5014565;28;20034;-53
2024/04/05 21:32:18;;;;;;;11.20;5.70;;;;;;;;;;5015040;28;20018;-53
2024/04/05 21:34:52;;;;;;;11.43;5.93;;;;;;;;;;5013999;28;20103;-54
2024/04/05 21:37:17;;;;;;;8.50;5.20;;;;;;;;;;5014375;28;20113;-54
2024/04/05 21:39:43;;;;;;;9.48;5.13;;;;;;;;;;5014898;28;20021;-54
2024/04/05 21:42:09;;;;;;;13.68;7.07;;;;;;;;;;5014285;28;20048;-54
2024/04/05 21:44:34;;;;;;;15.57;7.00;;;;;;;;;;5014925;28;20462;-54
2024/04/05 21:47:03;;;;;;;15.88;8.43;;;;;;;;;;5014273;28;20088;-54
2024/04/05 21:49:33;;;;;;;17.38;8.93;;;;;;;;;;4981137;28;20395;-54
2024/04/05 21:51:58;;;;;;;20.50;10.00;;;;;;;;;;5014231;28;20026;-54
2024/04/05 21:54:24;;;;;;;22.73;9.90;;;;;;;;;;5014189;28;20100;-54
2024/04/05 21:56:49;;;;;;;16.70;8.88;;;;;;;;;;5014411;28;20030;-54
2024/04/05 21:59:15;;;;;;;12.77;6.97;;;;;;;;;;5014055;28;20017;-54
2024/04/05 22:01:40;;;;;;;16.17;7.63;;;;;;;;;;4996580;28;20045;-54
2024/04/05 22:04:06;;;;;;;39.00;16.30;;;;;;;;;;5014207;28;20424;-54
2024/04/05 22:06:31;;;;;;;54.50;20.40;;;;;;;;;;5014367;28;20068;-54
2024/04/05 22:08:57;;;;;;;105.43;35.08;;;;;;;;;;5013965;28;20413;-54
2024/04/05 22:11:22;;;;;;;95.85;35.22;;;;;;;;;;5014441;28;20473;-54
2024/04/05 22:13:48;;;;;;;101.22;38.95;;;;;;;;;;5013494;28;20072;-54
2024/04/05 22:16:13;;;;;;;173.50;64.05;;;;;;;;;;5014146;28;20038;-54
2024/04/05 22:18:39;;;;;;;133.93;50.83;;;;;;;;;;5014327;28;20438;-54
2024/04/05 22:21:07;;;;;;;103.63;40.95;;;;;;;;;;5014040;28;20025;-54
2024/04/05 22:23:33;;;;;;;93.65;37.40;;;;;;;;;;5028957;28;20042;-54
2024/04/05 22:26:01;;;;;;;58.72;23.48;;;;;;;;;;5014026;28;20076;-54
2024/04/05 22:28:26;;;;;;;71.22;31.38;;;;;;;;;;5013504;28;20030;-54
2024/04/05 22:30:52;;;;;;;62.30;28.73;;;;;;;;;;5012454;28;20045;-54
2024/04/05 22:33:17;;;;;;;61.22;27.45;;;;;;;;;;5013974;28;20064;-54
2024/04/05 22:35:46;;;;;;;23.15;11.65;;;;;;;;;;5013623;28;20065;-54
2024/04/05 22:38:12;;;;;;;18.75;9.68;;;;;;;;;;5012818;28;20030;-54
2024/04/05 22:40:37;;;;;;;29.40;13.80;;;;;;;;;;5012878;28;20431;-54
2024/04/05 22:43:03;;;;;;;21.92;9.00;;;;;;;;;;5012835;28;20529;-54
2024/04/05 22:45:28;;;;;;;12.00;6.30;;;;;;;;;;5012356;28;20069;-54
2024/04/05 22:47:54;;;;;;;12.07;5.60;;;;;;;;;;5012917;28;20026;-54
2024/04/05 22:50:19;;;;;;;8.25;5.15;;;;;;;;;;5013268;28;20020;-54
2024/04/05 22:52:44;;;;;;;9.73;5.15;;;;;;;;;;5014053;28;20026;-54
2024/04/05 22:55:10;;;;;;;8.93;4.78;;;;;;;;;;5017829;28;20034;-54
2024/04/05 22:57:36;;;;;;;8.73;5.00;;;;;;;;;;5017919;28;20038;-53
2024/04/05 23:00:05;;;;;;;8.40;4.32;;;;;;;;;;5017584;28;20084;-53
2024/04/05 23:02:31;;;;;;;7.85;5.10;;;;;;;;;;5017596;28;20381;-53
2024/04/05 23:04:56;;;;;;;10.95;5.68;;;;;;;;;;5017402;28;20117;-53
2024/04/05 23:07:22;;;;;;;8.68;6.13;;;;;;;;;;5017527;28;20081;-53
2024/04/05 23:09:47;;;;;;;10.73;6.07;;;;;;;;;;5017447;28;20032;-53
2024/04/05 23:12:13;;;;;;;11.63;5.90;;;;;;;;;;5016836;28;20169;-53
2024/04/05 23:14:38;;;;;;;12.32;7.05;;;;;;;;;;5017342;28;20041;-53
2024/04/05 23:17:04;;;;;;;13.43;7.22;;;;;;;;;;5017331;28;20034;-53
2024/04/05 23:19:29;;;;;;;14.15;8.45;;;;;;;;;;5015716;28;20478;-54
2024/04/05 23:21:55;;;;;;;14.73;8.63;;;;;;;;;;5017192;28;20040;-54
2024/04/05 23:24:20;;;;;;;16.75;8.90;;;;;;;;;;5017356;28;20087;-54
2024/04/05 23:26:48;;;;;;;16.80;8.60;;;;;;;;;;5016834;28;20029;-54
2024/04/05 23:29:14;;;;;;;17.85;10.00;;;;;;;;;;5017071;28;20022;-54
2024/04/05 23:31:40;;;;;;;17.80;10.38;;;;;;;;;;5016740;28;20493;-54
2024/04/05 23:34:05;;;;;;;16.55;9.32;;;;;;;;;;5016953;28;20026;-54
2024/04/05 23:36:31;;;;;;;17.98;9.85;;;;;;;;;;5016682;28;20488;-54
2024/04/05 23:38:56;;;;;;;14.23;7.63;;;;;;;;;;5016831;28;20017;-54
2024/04/05 23:41:21;;;;;;;10.48;6.00;;;;;;;;;;4998941;28;20150;-54
2024/04/05 23:43:47;;;;;;;10.75;6.15;;;;;;;;;;5016696;28;20030;-54
2024/04/05 23:46:12;;;;;;;10.32;6.50;;;;;;;;;;5016803;28;20029;-54
2024/04/05 23:48:38;;;;;;;8.93;5.93;;;;;;;;;;5016700;28;20034;-54
2024/04/05 23:51:03;;;;;;;11.70;6.82;;;;;;;;;;5016371;28;20034;-54
2024/04/05 23:53:29;;;;;;;9.32;6.45;;;;;;;;;;5016644;28;20014;-55
2024/04/05 23:55:54;;;;;;;7.57;5.50;;;;;;;;;;5015676;28;20026;-54
2024/04/05 23:58:19;;;;;;;11.63;6.32;;;;;;;;;;5015041;28;20037;-55
